sensor_id;sensor_type;location;lat;lon;timestamp;pressure;altitude;pressure_sealevel;temperature;humidity
30897;BME280;64229;52.246;21.054;2024-02-14T00:02:07;101019.31;;;5.69;90.05
30897;BME280;64229;52.246;21.054;2024-02-14T00:04:32;101013.22;;;5.68;90.40
30897;BME280;64229;52.246;21.054;2024-02-14T00:06:57;101014.75;;;5.51;91.09
30897;BME280;64229;52.246;21.054;2024-02-14T00:09:23;101019.69;;;5.41;91.72
30897;BME280;64229;52.246;21.054;2024-02-14T00:11:48;101026.44;;;5.37;92.24
30897;BME280;64229;52.246;21.054;2024-02-14T00:14:13;101026.03;;;5.40;92.19
30897;BME280;64229;52.246;21.054;2024-02-14T00:16:39;101012.75;;;5.08;93.14
30897;BME280;64229;52.246;21.054;2024-02-14T00:19:04;101038.28;;;5.34;92.74
30897;BME280;64229;52.246;21.054;2024-02-14T00:21:29;101035.69;;;5.59;91.63
30897;BME280;64229;52.246;21.054;2024-02-14T00:23:54;101024.44;;;5.32;92.27
30897;BME280;64229;52.246;21.054;2024-02-14T00:26:20;101034.03;;;5.27;93.42
30897;BME280;64229;52.246;21.054;2024-02-14T00:28:45;101041.09;;;5.39;92.31
30897;BME280;64229;52.246;21.054;2024-02-14T00:31:10;101037.13;;;5.23;93.32
30897;BME280;64229;52.246;21.054;2024-02-14T00:33:35;101041.38;;;5.25;93.79
30897;BME280;64229;52.246;21.054;2024-02-14T00:36:01;101050.38;;;5.17;94.26
30897;BME280;64229;52.246;21.054;2024-02-14T00:38:26;101048.56;;;5.11;94.51
30897;BME280;64229;52.246;21.054;2024-02-14T00:40:51;101042.03;;;5.13;94.69
30897;BME280;64229;52.246;21.054;2024-02-14T00:43:16;101052.84;;;5.12;94.71
30897;BME280;64229;52.246;21.054;2024-02-14T00:45:42;101046.38;;;5.01;95.13
30897;BME280;64229;52.246;21.054;2024-02-14T00:48:07;101034.75;;;5.02;95.28
30897;BME280;64229;52.246;21.054;2024-02-14T00:50:33;101050.84;;;5.01;95.64
30897;BME280;64229;52.246;21.054;2024-02-14T00:52:59;101048.59;;;5.04;95.58
30897;BME280;64229;52.246;21.054;2024-02-14T00:55:24;101043.31;;;5.04;95.51
30897;BME280;64229;52.246;21.054;2024-02-14T00:57:49;101040.28;;;5.01;95.86
30897;BME280;64229;52.246;21.054;2024-02-14T01:00:14;101047.78;;;5.04;95.85
30897;BME280;64229;52.246;21.054;2024-02-14T01:02:42;101036.81;;;5.00;96.02
30897;BME280;64229;52.246;21.054;2024-02-14T01:05:07;101050.22;;;5.05;95.88
30897;BME280;64229;52.246;21.054;2024-02-14T01:07:34;101041.69;;;4.97;96.00
30897;BME280;64229;52.246;21.054;2024-02-14T01:09:59;101039.50;;;4.87;96.54
30897;BME280;64229;52.246;21.054;2024-02-14T01:12:24;101042.13;;;4.87;96.95
30897;BME280;64229;52.246;21.054;2024-02-14T01:14:50;101041.75;;;4.77;96.65
30897;BME280;64229;52.246;21.054;2024-02-14T01:17:15;101048.88;;;4.76;97.13
30897;BME280;64229;52.246;21.054;2024-02-14T01:19:40;101050.09;;;4.74;97.33
30897;BME280;64229;52.246;21.054;2024-02-14T01:22:06;101048.09;;;4.69;97.54
30897;BME280;64229;52.246;21.054;2024-02-14T01:24:33;101057.44;;;4.72;97.74
30897;BME280;64229;52.246;21.054;2024-02-14T01:26:59;101044.06;;;4.60;97.97
30897;BME280;64229;52.246;21.054;2024-02-14T01:29:25;101059.50;;;4.70;98.11
30897;BME280;64229;52.246;21.054;2024-02-14T01:31:50;101051.31;;;4.78;97.16
30897;BME280;64229;52.246;21.054;2024-02-14T01:34:16;101045.25;;;4.71;97.04
30897;BME280;64229;52.246;21.054;2024-02-14T01:36:41;101055.22;;;4.69;97.08
30897;BME280;64229;52.246;21.054;2024-02-14T01:39:06;101050.16;;;4.60;97.70
30897;BME280;64229;52.246;21.054;2024-02-14T01:41:32;101053.22;;;4.57;97.87
30897;BME280;64229;52.246;21.054;2024-02-14T01:43:58;101059.31;;;4.51;97.77
30897;BME280;64229;52.246;21.054;2024-02-14T01:46:24;101054.84;;;4.45;97.76
30897;BME280;64229;52.246;21.054;2024-02-14T01:48:49;101039.19;;;4.44;98.09
30897;BME280;64229;52.246;21.054;2024-02-14T01:51:15;101053.22;;;4.44;98.21
30897;BME280;64229;52.246;21.054;2024-02-14T01:53:43;101053.63;;;4.41;98.24
30897;BME280;64229;52.246;21.054;2024-02-14T01:56:08;101059.72;;;4.35;98.27
30897;BME280;64229;52.246;21.054;2024-02-14T01:58:34;101055.47;;;4.34;98.73
30897;BME280;64229;52.246;21.054;2024-02-14T02:00:59;101053.84;;;4.40;98.50
30897;BME280;64229;52.246;21.054;2024-02-14T02:03:25;101057.72;;;4.37;98.37
30897;BME280;64229;52.246;21.054;2024-02-14T02:05:54;101063.00;;;4.37;98.38
30897;BME280;64229;52.246;21.054;2024-02-14T02:08:20;101065.81;;;4.35;98.33
30897;BME280;64229;52.246;21.054;2024-02-14T02:10:46;101071.53;;;4.39;98.16
30897;BME280;64229;52.246;21.054;2024-02-14T02:13:12;101043.91;;;4.28;98.07
30897;BME280;64229;52.246;21.054;2024-02-14T02:15:37;101071.75;;;4.38;97.94
30897;BME280;64229;52.246;21.054;2024-02-14T02:18:03;101052.41;;;4.30;98.03
30897;BME280;64229;52.246;21.054;2024-02-14T02:20:33;101073.75;;;4.35;98.06
30897;BME280;64229;52.246;21.054;2024-02-14T02:22:59;101070.28;;;4.35;98.14
30897;BME280;64229;52.246;21.054;2024-02-14T02:25:25;101061.16;;;4.24;98.99
30897;BME280;64229;52.246;21.054;2024-02-14T02:27:52;101078.84;;;4.30;98.94
30897;BME280;64229;52.246;21.054;2024-02-14T02:30:18;101075.00;;;4.20;99.76
30897;BME280;64229;52.246;21.054;2024-02-14T02:32:43;101072.56;;;4.18;100.00
30897;BME280;64229;52.246;21.054;2024-02-14T02:35:09;101068.28;;;4.11;100.00
30897;BME280;64229;52.246;21.054;2024-02-14T02:37:35;101071.09;;;4.02;100.00
30897;BME280;64229;52.246;21.054;2024-02-14T02:40:00;101072.94;;;4.02;100.00
30897;BME280;64229;52.246;21.054;2024-02-14T02:42:26;101077.22;;;3.96;100.00
30897;BME280;64229;52.246;21.054;2024-02-14T02:44:51;101079.66;;;3.98;100.00
30897;BME280;64229;52.246;21.054;2024-02-14T02:47:16;101072.72;;;4.03;100.00
30897;BME280;64229;52.246;21.054;2024-02-14T02:49:43;101074.38;;;4.04;100.00
30897;BME280;64229;52.246;21.054;2024-02-14T02:52:12;101086.16;;;4.02;100.00
30897;BME280;64229;52.246;21.054;2024-02-14T02:54:37;101085.53;;;4.00;100.00
30897;BME280;64229;52.246;21.054;2024-02-14T02:57:09;101085.16;;;3.96;100.00
30897;BME280;64229;52.246;21.054;2024-02-14T02:59:35;101083.91;;;3.92;100.00
30897;BME280;64229;52.246;21.054;2024-02-14T03:02:02;101088.16;;;3.87;100.00
30897;BME280;64229;52.246;21.054;2024-02-14T03:04:27;101076.16;;;3.77;100.00
30897;BME280;64229;52.246;21.054;2024-02-14T03:06:53;101067.63;;;3.69;100.00
30897;BME280;64229;52.246;21.054;2024-02-14T03:09:18;101084.69;;;3.80;100.00
30897;BME280;64229;52.246;21.054;2024-02-14T03:11:47;101092.22;;;3.83;100.00
30897;BME280;64229;52.246;21.054;2024-02-14T03:14:13;101092.41;;;3.81;100.00
30897;BME280;64229;52.246;21.054;2024-02-14T03:16:38;101095.47;;;3.91;100.00
30897;BME280;64229;52.246;21.054;2024-02-14T03:19:04;101101.78;;;4.03;100.00
30897;BME280;64229;52.246;21.054;2024-02-14T03:21:30;101101.38;;;3.93;100.00
30897;BME280;64229;52.246;21.054;2024-02-14T03:23:57;101096.69;;;3.89;100.00
30897;BME280;64229;52.246;21.054;2024-02-14T03:26:22;101112.34;;;3.84;100.00
30897;BME280;64229;52.246;21.054;2024-02-14T03:28:48;101106.44;;;3.88;100.00
30897;BME280;64229;52.246;21.054;2024-02-14T03:31:14;101116.41;;;3.93;100.00
30897;BME280;64229;52.246;21.054;2024-02-14T03:33:40;101110.69;;;3.83;100.00
30897;BME280;64229;52.246;21.054;2024-02-14T03:36:05;101113.09;;;3.71;100.00
30897;BME280;64229;52.246;21.054;2024-02-14T03:38:31;101104.16;;;3.65;100.00
30897;BME280;64229;52.246;21.054;2024-02-14T03:40:56;101108.59;;;3.58;100.00
30897;BME280;64229;52.246;21.054;2024-02-14T03:43:21;101107.78;;;3.51;100.00
30897;BME280;64229;52.246;21.054;2024-02-14T03:45:49;101109.56;;;3.37;100.00
30897;BME280;64229;52.246;21.054;2024-02-14T03:48:14;101110.13;;;3.26;100.00
30897;BME280;64229;52.246;21.054;2024-02-14T03:50:39;101108.66;;;3.17;100.00
30897;BME280;64229;52.246;21.054;2024-02-14T03:53:05;101113.91;;;3.10;100.00
30897;BME280;64229;52.246;21.054;2024-02-14T03:55:30;101117.50;;;3.03;100.00
30897;BME280;64229;52.246;21.054;2024-02-14T03:57:56;101110.75;;;2.94;100.00
30897;BME280;64229;52.246;21.054;2024-02-14T04:00:21;101116.44;;;2.90;100.00
30897;BME280;64229;52.246;21.054;2024-02-14T04:02:47;101113.34;;;2.80;100.00
30897;BME280;64229;52.246;21.054;2024-02-14T04:05:14;101125.44;;;2.75;100.00
30897;BME280;64229;52.246;21.054;2024-02-14T04:07:39;101123.41;;;2.70;100.00
30897;BME280;64229;52.246;21.054;2024-02-14T04:10:05;101118.88;;;2.64;100.00
30897;BME280;64229;52.246;21.054;2024-02-14T04:12:30;101124.53;;;2.61;100.00
30897;BME280;64229;52.246;21.054;2024-02-14T04:14:56;101110.00;;;2.44;100.00
30897;BME280;64229;52.246;21.054;2024-02-14T04:17:21;101126.31;;;2.54;100.00
30897;BME280;64229;52.246;21.054;2024-02-14T04:19:46;101135.84;;;2.55;100.00
30897;BME280;64229;52.246;21.054;2024-02-14T04:22:11;101128.38;;;2.58;100.00
30897;BME280;64229;52.246;21.054;2024-02-14T04:24:37;101125.97;;;2.64;100.00
30897;BME280;64229;52.246;21.054;2024-02-14T04:27:02;101122.72;;;2.61;100.00
30897;BME280;64229;52.246;21.054;2024-02-14T04:29:29;101124.81;;;2.66;100.00
30897;BME280;64229;52.246;21.054;2024-02-14T04:31:56;101131.09;;;2.72;100.00
30897;BME280;64229;52.246;21.054;2024-02-14T04:34:21;101126.25;;;2.75;100.00
30897;BME280;64229;52.246;21.054;2024-02-14T04:36:46;101127.53;;;2.86;100.00
30897;BME280;64229;52.246;21.054;2024-02-14T04:39:12;101132.66;;;2.87;100.00
30897;BME280;64229;52.246;21.054;2024-02-14T04:41:37;101131.66;;;2.88;100.00
30897;BME280;64229;52.246;21.054;2024-02-14T04:44:04;101127.53;;;2.79;100.00
30897;BME280;64229;52.246;21.054;2024-02-14T04:46:32;101134.41;;;2.80;100.00
30897;BME280;64229;52.246;21.054;2024-02-14T04:48:57;101137.88;;;2.81;100.00
30897;BME280;64229;52.246;21.054;2024-02-14T04:51:22;101144.97;;;2.80;100.00
30897;BME280;64229;52.246;21.054;2024-02-14T04:53:48;101141.31;;;2.81;100.00
30897;BME280;64229;52.246;21.054;2024-02-14T04:56:13;101154.91;;;2.85;100.00
30897;BME280;64229;52.246;21.054;2024-02-14T04:58:38;101153.06;;;2.79;100.00
30897;BME280;64229;52.246;21.054;2024-02-14T05:01:04;101153.88;;;2.79;100.00
30897;BME280;64229;52.246;21.054;2024-02-14T05:03:29;101153.06;;;2.79;100.00
30897;BME280;64229;52.246;21.054;2024-02-14T05:05:54;101144.28;;;2.72;100.00
30897;BME280;64229;52.246;21.054;2024-02-14T05:08:19;101137.94;;;2.59;100.00
30897;BME280;64229;52.246;21.054;2024-02-14T05:10:45;101162.81;;;2.78;100.00
30897;BME280;64229;52.246;21.054;2024-02-14T05:13:11;101159.34;;;2.78;100.00
30897;BME280;64229;52.246;21.054;2024-02-14T05:15:36;101156.31;;;2.81;100.00
30897;BME280;64229;52.246;21.054;2024-02-14T05:18:02;101154.69;;;2.80;100.00
30897;BME280;64229;52.246;21.054;2024-02-14T05:20:27;101165.00;;;2.75;100.00
30897;BME280;64229;52.246;21.054;2024-02-14T05:22:53;101153.59;;;2.68;100.00
30897;BME280;64229;52.246;21.054;2024-02-14T05:25:18;101159.91;;;2.73;100.00
30897;BME280;64229;52.246;21.054;2024-02-14T05:27:44;101149.69;;;2.64;100.00
30897;BME280;64229;52.246;21.054;2024-02-14T05:30:12;101164.78;;;2.76;100.00
30897;BME280;64229;52.246;21.054;2024-02-14T05:32:37;101170.53;;;2.86;100.00
30897;BME280;64229;52.246;21.054;2024-02-14T05:35:02;101168.09;;;2.85;100.00
30897;BME280;64229;52.246;21.054;2024-02-14T05:37:31;101165.53;;;2.92;100.00
30897;BME280;64229;52.246;21.054;2024-02-14T05:39:56;101166.97;;;2.94;100.00
30897;BME280;64229;52.246;21.054;2024-02-14T05:42:21;101169.78;;;2.93;100.00
30897;BME280;64229;52.246;21.054;2024-02-14T05:44:47;101170.84;;;2.98;100.00
30897;BME280;64229;52.246;21.054;2024-02-14T05:47:13;101169.78;;;2.93;100.00
30897;BME280;64229;52.246;21.054;2024-02-14T05:49:39;101170.38;;;2.88;100.00
30897;BME280;64229;52.246;21.054;2024-02-14T05:52:05;101163.34;;;3.02;100.00
30897;BME280;64229;52.246;21.054;2024-02-14T05:54:31;101176.47;;;3.23;100.00
30897;BME280;64229;52.246;21.054;2024-02-14T05:56:56;101125.22;;;3.04;100.00
30897;BME280;64229;52.246;21.054;2024-02-14T05:59:22;101147.25;;;3.25;100.00
30897;BME280;64229;52.246;21.054;2024-02-14T06:01:48;101180.69;;;3.52;100.00
30897;BME280;64229;52.246;21.054;2024-02-14T06:04:13;101181.19;;;3.75;100.00
30897;BME280;64229;52.246;21.054;2024-02-14T06:06:38;101187.06;;;3.77;100.00
30897;BME280;64229;52.246;21.054;2024-02-14T06:09:03;101180.94;;;3.70;100.00
30897;BME280;64229;52.246;21.054;2024-02-14T06:11:35;101189.66;;;3.71;100.00
30897;BME280;64229;52.246;21.054;2024-02-14T06:14:00;101188.81;;;3.57;100.00
30897;BME280;64229;52.246;21.054;2024-02-14T06:16:25;101187.75;;;3.45;100.00
30897;BME280;64229;52.246;21.054;2024-02-14T06:18:51;101191.34;;;3.31;100.00
30897;BME280;64229;52.246;21.054;2024-02-14T06:21:16;101195.09;;;3.15;100.00
30897;BME280;64229;52.246;21.054;2024-02-14T06:23:41;101199.13;;;3.11;100.00
30897;BME280;64229;52.246;21.054;2024-02-14T06:26:07;101181.97;;;2.94;100.00
30897;BME280;64229;52.246;21.054;2024-02-14T06:28:32;101204.97;;;3.06;100.00
30897;BME280;64229;52.246;21.054;2024-02-14T06:30:57;101208.63;;;3.05;100.00
30897;BME280;64229;52.246;21.054;2024-02-14T06:33:23;101200.31;;;3.08;100.00
30897;BME280;64229;52.246;21.054;2024-02-14T06:35:48;101207.72;;;3.19;100.00
30897;BME280;64229;52.246;21.054;2024-02-14T06:38:14;101206.50;;;3.22;100.00
30897;BME280;64229;52.246;21.054;2024-02-14T06:40:39;101208.31;;;3.22;100.00
30897;BME280;64229;52.246;21.054;2024-02-14T06:43:05;101198.13;;;3.18;100.00
30897;BME280;64229;52.246;21.054;2024-02-14T06:45:32;101207.50;;;3.21;100.00
30897;BME280;64229;52.246;21.054;2024-02-14T06:47:57;101204.09;;;3.27;100.00
30897;BME280;64229;52.246;21.054;2024-02-14T06:50:22;101206.72;;;3.27;100.00
30897;BME280;64229;52.246;21.054;2024-02-14T06:52:50;101202.91;;;3.30;100.00
30897;BME280;64229;52.246;21.054;2024-02-14T06:55:16;101201.88;;;3.31;100.00
30897;BME280;64229;52.246;21.054;2024-02-14T06:57:41;101209.41;;;3.34;100.00
30897;BME280;64229;52.246;21.054;2024-02-14T07:00:07;101212.09;;;3.40;100.00
30897;BME280;64229;52.246;21.054;2024-02-14T07:02:34;101215.34;;;3.42;100.00
30897;BME280;64229;52.246;21.054;2024-02-14T07:04:59;101219.63;;;3.50;100.00
30897;BME280;64229;52.246;21.054;2024-02-14T07:07:24;101205.16;;;3.39;100.00
30897;BME280;64229;52.246;21.054;2024-02-14T07:09:50;101220.84;;;3.47;100.00
30897;BME280;64229;52.246;21.054;2024-02-14T07:12:16;101209.66;;;3.45;100.00
30897;BME280;64229;52.246;21.054;2024-02-14T07:14:41;101216.03;;;3.58;100.00
30897;BME280;64229;52.246;21.054;2024-02-14T07:17:06;101216.03;;;3.58;100.00
30897;BME280;64229;52.246;21.054;2024-02-14T07:19:32;101213.44;;;3.71;100.00
30897;BME280;64229;52.246;21.054;2024-02-14T07:21:57;101219.78;;;3.76;100.00
30897;BME280;64229;52.246;21.054;2024-02-14T07:24:22;101222.06;;;3.93;100.00
30897;BME280;64229;52.246;21.054;2024-02-14T07:26:48;101223.50;;;3.95;100.00
30897;BME280;64229;52.246;21.054;2024-02-14T07:29:13;101217.41;;;4.01;100.00
30897;BME280;64229;52.246;21.054;2024-02-14T07:31:39;101219.28;;;4.21;100.00
30897;BME280;64229;52.246;21.054;2024-02-14T07:34:05;101223.56;;;4.15;100.00
30897;BME280;64229;52.246;21.054;2024-02-14T07:36:31;101217.91;;;4.31;100.00
30897;BME280;64229;52.246;21.054;2024-02-14T07:38:57;101219.72;;;4.31;100.00
30897;BME280;64229;52.246;21.054;2024-02-14T07:41:22;101221.53;;;4.24;100.00
30897;BME280;64229;52.246;21.054;2024-02-14T07:43:47;101220.56;;;4.38;100.00
30897;BME280;64229;52.246;21.054;2024-02-14T07:46:19;101205.50;;;4.32;100.00
30897;BME280;64229;52.246;21.054;2024-02-14T07:48:45;101227.47;;;4.39;100.00
30897;BME280;64229;52.246;21.054;2024-02-14T07:51:11;101225.66;;;4.59;100.00
30897;BME280;64229;52.246;21.054;2024-02-14T07:53:37;101228.34;;;4.79;98.23
30897;BME280;64229;52.246;21.054;2024-02-14T07:56:02;101228.09;;;4.74;97.88
30897;BME280;64229;52.246;21.054;2024-02-14T07:58:27;101211.00;;;4.57;98.88
30897;BME280;64229;52.246;21.054;2024-02-14T08:00:53;101198.59;;;4.51;98.74
30897;BME280;64229;52.246;21.054;2024-02-14T08:03:18;101223.63;;;4.61;99.27
30897;BME280;64229;52.246;21.054;2024-02-14T08:05:43;101221.78;;;4.55;99.61
30897;BME280;64229;52.246;21.054;2024-02-14T08:08:08;101225.69;;;4.79;97.27
30897;BME280;64229;52.246;21.054;2024-02-14T08:10:34;101228.31;;;4.73;97.76
30897;BME280;64229;52.246;21.054;2024-02-14T08:12:59;101220.59;;;4.91;97.51
30897;BME280;64229;52.246;21.054;2024-02-14T08:15:24;101226.91;;;4.90;97.31
30897;BME280;64229;52.246;21.054;2024-02-14T08:17:50;101236.22;;;4.99;96.80
30897;BME280;64229;52.246;21.054;2024-02-14T08:20:15;101225.84;;;4.98;97.13
30897;BME280;64229;52.246;21.054;2024-02-14T08:22:40;101226.84;;;5.10;97.51
30897;BME280;64229;52.246;21.054;2024-02-14T08:25:06;101225.84;;;5.17;96.35
30897;BME280;64229;52.246;21.054;2024-02-14T08:27:32;101228.50;;;5.24;95.65
30897;BME280;64229;52.246;21.054;2024-02-14T08:29:57;101228.03;;;5.40;94.84
30897;BME280;64229;52.246;21.054;2024-02-14T08:32:22;101226.41;;;5.46;94.04
30897;BME280;64229;52.246;21.054;2024-02-14T08:34:48;101241.22;;;5.60;93.00
30897;BME280;64229;52.246;21.054;2024-02-14T08:37:15;101224.66;;;5.78;91.92
30897;BME280;64229;52.246;21.054;2024-02-14T08:39:41;101233.44;;;5.72;90.55
30897;BME280;64229;52.246;21.054;2024-02-14T08:42:06;101233.81;;;5.82;90.51
30897;BME280;64229;52.246;21.054;2024-02-14T08:44:33;101231.38;;;5.74;91.52
30897;BME280;64229;52.246;21.054;2024-02-14T08:46:59;101235.25;;;5.78;91.85
30897;BME280;64229;52.246;21.054;2024-02-14T08:49:25;101235.41;;;5.90;91.53
30897;BME280;64229;52.246;21.054;2024-02-14T08:51:50;101234.75;;;6.07;89.80
30897;BME280;64229;52.246;21.054;2024-02-14T08:54:15;101235.03;;;6.31;87.80
30897;BME280;64229;52.246;21.054;2024-02-14T08:56:41;101230.19;;;6.53;85.92
30897;BME280;64229;52.246;21.054;2024-02-14T08:59:06;101237.47;;;6.64;84.66
30897;BME280;64229;52.246;21.054;2024-02-14T09:01:32;101234.69;;;6.77;83.93
30897;BME280;64229;52.246;21.054;2024-02-14T09:03:57;101235.03;;;6.87;82.96
30897;BME280;64229;52.246;21.054;2024-02-14T09:06:24;101239.63;;;6.99;81.72
30897;BME280;64229;52.246;21.054;2024-02-14T09:08:51;101234.06;;;6.82;82.85
30897;BME280;64229;52.246;21.054;2024-02-14T09:11:17;101241.44;;;7.05;81.72
30897;BME280;64229;52.246;21.054;2024-02-14T09:13:43;101233.06;;;7.01;81.98
30897;BME280;64229;52.246;21.054;2024-02-14T09:16:09;101243.19;;;7.11;81.40
30897;BME280;64229;52.246;21.054;2024-02-14T09:18:34;101240.72;;;7.16;80.71
30897;BME280;64229;52.246;21.054;2024-02-14T09:21:00;101232.88;;;7.21;80.50
30897;BME280;64229;52.246;21.054;2024-02-14T09:23:26;101231.13;;;7.15;81.57
30897;BME280;64229;52.246;21.054;2024-02-14T09:25:51;101229.19;;;7.04;82.46
30897;BME280;64229;52.246;21.054;2024-02-14T09:28:17;101229.63;;;7.19;81.91
30897;BME280;64229;52.246;21.054;2024-02-14T09:30:42;101223.25;;;7.27;81.94
30897;BME280;64229;52.246;21.054;2024-02-14T09:33:08;101224.94;;;7.39;80.28
30897;BME280;64229;52.246;21.054;2024-02-14T09:35:33;101216.00;;;7.52;78.77
30897;BME280;64229;52.246;21.054;2024-02-14T09:38:00;101226.34;;;7.60;78.60
30897;BME280;64229;52.246;21.054;2024-02-14T09:40:26;101227.22;;;7.54;79.34
30897;BME280;64229;52.246;21.054;2024-02-14T09:42:55;101229.13;;;7.65;78.73
30897;BME280;64229;52.246;21.054;2024-02-14T09:45:25;101225.53;;;7.60;79.16
30897;BME280;64229;52.246;21.054;2024-02-14T09:47:51;101221.16;;;7.83;77.39
30897;BME280;64229;52.246;21.054;2024-02-14T09:50:17;101219.31;;;7.84;76.65
30897;BME280;64229;52.246;21.054;2024-02-14T09:52:43;101191.50;;;7.68;76.97
30897;BME280;64229;52.246;21.054;2024-02-14T09:55:11;101221.38;;;7.82;76.96
30897;BME280;64229;52.246;21.054;2024-02-14T09:57:38;101223.75;;;7.90;77.00
30897;BME280;64229;52.246;21.054;2024-02-14T10:00:06;101221.41;;;8.12;74.13
30897;BME280;64229;52.246;21.054;2024-02-14T10:02:35;101216.94;;;7.94;75.04
30897;BME280;64229;52.246;21.054;2024-02-14T10:05:00;101219.88;;;8.04;74.83
30897;BME280;64229;52.246;21.054;2024-02-14T10:07:25;101222.16;;;8.19;73.48
30897;BME280;64229;52.246;21.054;2024-02-14T10:09:51;101216.41;;;8.04;74.40
30897;BME280;64229;52.246;21.054;2024-02-14T10:12:16;101215.09;;;8.25;73.14
30897;BME280;64229;52.246;21.054;2024-02-14T10:14:43;101212.44;;;8.25;73.09
30897;BME280;64229;52.246;21.054;2024-02-14T10:17:18;101209.31;;;8.28;71.80
30897;BME280;64229;52.246;21.054;2024-02-14T10:19:54;101210.50;;;8.32;71.62
30897;BME280;64229;52.246;21.054;2024-02-14T10:22:20;101213.25;;;8.25;71.86
30897;BME280;64229;52.246;21.054;2024-02-14T10:24:46;101187.50;;;8.07;71.39
30897;BME280;64229;52.246;21.054;2024-02-14T10:27:11;101207.16;;;8.06;72.86
30897;BME280;64229;52.246;21.054;2024-02-14T10:29:36;101206.25;;;8.12;72.28
30897;BME280;64229;52.246;21.054;2024-02-14T10:32:02;101213.25;;;8.25;71.26
30897;BME280;64229;52.246;21.054;2024-02-14T10:34:27;101206.72;;;8.09;72.55
30897;BME280;64229;52.246;21.054;2024-02-14T10:36:56;101201.53;;;8.15;72.39
30897;BME280;64229;52.246;21.054;2024-02-14T10:39:25;101165.09;;;8.15;71.11
30897;BME280;64229;52.246;21.054;2024-02-14T10:41:50;101198.88;;;8.45;69.93
30897;BME280;64229;52.246;21.054;2024-02-14T10:44:15;101198.56;;;8.53;69.15
30897;BME280;64229;52.246;21.054;2024-02-14T10:46:41;101197.75;;;8.52;68.53
30897;BME280;64229;52.246;21.054;2024-02-14T10:49:07;101191.25;;;8.48;68.01
30897;BME280;64229;52.246;21.054;2024-02-14T10:51:34;101175.63;;;8.40;67.13
30897;BME280;64229;52.246;21.054;2024-02-14T10:54:05;101184.41;;;8.40;67.67
30897;BME280;64229;52.246;21.054;2024-02-14T10:56:34;101186.97;;;8.59;66.42
30897;BME280;64229;52.246;21.054;2024-02-14T10:59:04;101172.63;;;8.48;66.03
30897;BME280;64229;52.246;21.054;2024-02-14T11:01:30;101188.25;;;8.56;66.94
30897;BME280;64229;52.246;21.054;2024-02-14T11:03:59;101192.69;;;8.74;65.06
30897;BME280;64229;52.246;21.054;2024-02-14T11:06:25;101189.66;;;8.70;65.25
30897;BME280;64229;52.246;21.054;2024-02-14T11:09:03;101186.75;;;8.60;65.86
30897;BME280;64229;52.246;21.054;2024-02-14T11:11:33;101181.06;;;8.57;66.20
30897;BME280;64229;52.246;21.054;2024-02-14T11:13:58;101169.53;;;8.63;66.08
30897;BME280;64229;52.246;21.054;2024-02-14T11:16:27;101180.75;;;8.77;65.04
30897;BME280;64229;52.246;21.054;2024-02-14T11:19:06;101173.56;;;8.89;62.90
30897;BME280;64229;52.246;21.054;2024-02-14T11:21:36;101173.69;;;9.06;62.27
30897;BME280;64229;52.246;21.054;2024-02-14T11:24:06;101173.94;;;9.04;62.80
30897;BME280;64229;52.246;21.054;2024-02-14T11:26:50;101175.53;;;9.17;61.58
30897;BME280;64229;52.246;21.054;2024-02-14T11:29:17;101182.03;;;9.09;61.91
30897;BME280;64229;52.246;21.054;2024-02-14T11:31:47;101157.97;;;9.04;61.53
30897;BME280;64229;52.246;21.054;2024-02-14T11:34:14;101167.91;;;9.09;62.27
30897;BME280;64229;52.246;21.054;2024-02-14T11:36:43;101169.16;;;9.18;61.10
30897;BME280;64229;52.246;21.054;2024-02-14T11:39:09;101164.06;;;9.16;61.30
30897;BME280;64229;52.246;21.054;2024-02-14T11:41:35;101154.94;;;8.89;61.05
30897;BME280;64229;52.246;21.054;2024-02-14T11:44:01;101156.91;;;8.82;62.52
30897;BME280;64229;52.246;21.054;2024-02-14T11:46:32;101162.22;;;9.17;60.87
30897;BME280;64229;52.246;21.054;2024-02-14T11:48:58;101164.06;;;9.28;60.64
30897;BME280;64229;52.246;21.054;2024-02-14T11:51:27;101156.41;;;9.20;61.63
30897;BME280;64229;52.246;21.054;2024-02-14T11:53:52;101162.16;;;9.40;60.65
30897;BME280;64229;52.246;21.054;2024-02-14T11:56:17;101157.72;;;9.57;58.62
30897;BME280;64229;52.246;21.054;2024-02-14T11:58:43;101162.47;;;9.55;59.17
30897;BME280;64229;52.246;21.054;2024-02-14T12:01:08;101170.34;;;9.62;57.99
30897;BME280;64229;52.246;21.054;2024-02-14T12:03:34;101167.59;;;9.57;57.76
30897;BME280;64229;52.246;21.054;2024-02-14T12:06:00;101151.44;;;9.64;57.06
30897;BME280;64229;52.246;21.054;2024-02-14T12:08:27;101155.84;;;9.70;57.02
30897;BME280;64229;52.246;21.054;2024-02-14T12:10:53;101152.31;;;9.81;56.35
30897;BME280;64229;52.246;21.054;2024-02-14T12:13:21;101150.63;;;9.63;57.08
30897;BME280;64229;52.246;21.054;2024-02-14T12:15:48;101158.53;;;9.58;57.17
30897;BME280;64229;52.246;21.054;2024-02-14T12:18:15;101154.34;;;9.62;57.25
30897;BME280;64229;52.246;21.054;2024-02-14T12:20:41;101158.19;;;9.54;57.67
30897;BME280;64229;52.246;21.054;2024-02-14T12:23:07;101160.59;;;9.56;56.78
30897;BME280;64229;52.246;21.054;2024-02-14T12:25:33;101152.25;;;9.64;56.95
30897;BME280;64229;52.246;21.054;2024-02-14T12:27:59;101121.84;;;9.48;56.89
30897;BME280;64229;52.246;21.054;2024-02-14T12:30:42;101154.47;;;9.55;57.74
30897;BME280;64229;52.246;21.054;2024-02-14T12:33:13;101147.75;;;9.53;58.01
30897;BME280;64229;52.246;21.054;2024-02-14T12:35:46;101154.88;;;9.47;58.28
30897;BME280;64229;52.246;21.054;2024-02-14T12:38:12;101142.25;;;9.31;58.21
30897;BME280;64229;52.246;21.054;2024-02-14T12:40:38;101144.78;;;9.49;58.12